PWSweather.com
Personal Weather Stations
Station Observations
PITCARMI1
La Serra, CarmignanoIT 59015

La SerraCarmignanoIT 59015

Lat: 43.804429, Lon: 11.027222

Elevation: 525

Station Type: Davis Vantage Vue

http://www.meteocarmignano.it

Latest ConditionsUpdated 9:30:02 AM GMT+01:01 Monday, Aug 31, 2015
Currently Today's Max Today's Min Today's Average
Temperature 77.4°F25.2°C 77.4°F25.2°C 65.9°F18.8°C 70.6°F21.4°C
Dew Point 63.8°F17.7°C 64.1°F17.8°C 59.2°F15.1°C 61.2°F16.2°C
Winds 1.2 mph E1.9 kmh E 1.2 mph E1.9 kmh E - 0.1 mph 0.2 kmh
Wind Gusts 3.5 mph5.6 kmh 3.5 mph5.6 kmh - -
Humidity 63% 80% 62% 73%
Pressure 30.05 in1017.6 mb 30.09 in1019.0 mb 30.05 in1017.6 mb -
Hour Temp Dew Point Humidity Winds Wind Gusts Pressure Precip Precip Rate Daily Precip Total
09:30 AM 77.4°F25.2°C 63.8°F17.7°C 63% 1.2 mph E1.9 kmh E 3.5 mph5.6 kmh 30.05 in1017.6 mb - 0.00 in0.0 mm 0.00 in0.0 mm
09:00 AM 76.4°F24.7°C 63.3°F17.4°C 64% 1.2 mph ENE1.9 kmh ENE 2.3 mph3.7 kmh 30.05 in1017.6 mb - 0.00 in0.0 mm 0.00 in0.0 mm
08:30 AM 75.9°F24.4°C 64.1°F17.8°C 67% Calm Calm 1.2 mph1.9 kmh 30.05 in1017.6 mb - 0.00 in0.0 mm 0.00 in0.0 mm
08:00 AM 73.3°F22.9°C 63.7°F17.6°C 72% Calm Calm 1.2 mph1.9 kmh 30.06 in1017.9 mb - 0.00 in0.0 mm 0.00 in0.0 mm
07:30 AM 71.0°F21.7°C 62.3°F16.8°C 74% Calm Calm 1.2 mph1.9 kmh 30.05 in1017.6 mb - 0.00 in0.0 mm 0.00 in0.0 mm
07:00 AM 70.0°F21.1°C 61.7°F16.5°C 75% Calm Calm -- 30.05 in1017.6 mb - 0.00 in0.0 mm 0.00 in0.0 mm
06:30 AM 69.6°F20.9°C 61.3°F16.3°C 75% Calm Calm 1.2 mph1.9 kmh 30.05 in1017.6 mb - 0.00 in0.0 mm 0.00 in0.0 mm
06:00 AM 66.1°F18.9°C 59.7°F15.4°C 80% Calm Calm 1.2 mph1.9 kmh 30.06 in1017.9 mb - 0.00 in0.0 mm 0.00 in0.0 mm
05:30 AM 65.9°F18.8°C 59.2°F15.1°C 79% Calm Calm -- 30.05 in1017.6 mb - 0.00 in0.0 mm 0.00 in0.0 mm
05:00 AM 66.7°F19.3°C 60.0°F15.6°C 79% Calm Calm -- 30.05 in1017.6 mb - 0.00 in0.0 mm 0.00 in0.0 mm
04:30 AM 66.7°F19.3°C 59.9°F15.5°C 79% Calm Calm -- 30.06 in1017.9 mb - 0.00 in0.0 mm 0.00 in0.0 mm
04:00 AM 67.6°F19.8°C 59.8°F15.4°C 76% Calm Calm -- 30.06 in1017.9 mb - 0.00 in0.0 mm 0.00 in0.0 mm
03:30 AM 68.0°F20.0°C 60.2°F15.7°C 76% Calm Calm -- 30.06 in1017.9 mb - 0.00 in0.0 mm 0.00 in0.0 mm
03:00 AM 68.4°F20.2°C 60.5°F15.8°C 76% Calm Calm -- 30.06 in1017.9 mb - 0.00 in0.0 mm 0.00 in0.0 mm
02:30 AM 69.2°F20.7°C 60.6°F15.9°C 74% Calm Calm -- 30.06 in1017.9 mb - 0.00 in0.0 mm 0.00 in0.0 mm
02:00 AM 69.9°F21.1°C 60.9°F16.1°C 73% Calm Calm 1.2 mph1.9 kmh 30.07 in1018.3 mb - 0.00 in0.0 mm 0.00 in0.0 mm
01:30 AM 70.1°F21.2°C 60.7°F15.9°C 72% Calm Calm -- 30.07 in1018.3 mb - 0.00 in0.0 mm 0.00 in0.0 mm
01:00 AM 72.0°F22.2°C 61.3°F16.3°C 69% Calm Calm -- 30.08 in1018.6 mb - 0.00 in0.0 mm 0.00 in0.0 mm
12:30 AM 72.7°F22.6°C 60.7°F15.9°C 66% Calm Calm -- 30.08 in1018.6 mb - 0.00 in0.0 mm 0.00 in0.0 mm
12:00 AM 74.8°F23.8°C 60.9°F16.1°C 62% Calm Calm -- 30.09 in1019.0 mb - 0.00 in0.0 mm 0.00 in0.0 mm